createdAt,value
2022-08-20T00:02:10.635Z,26.50
2022-08-20T00:04:41.227Z,26.63
2022-08-20T00:07:08.962Z,26.64
2022-08-20T00:09:38.982Z,26.53
2022-08-20T00:12:07.136Z,26.54
2022-08-20T00:14:34.675Z,26.55
2022-08-20T00:17:02.345Z,26.50
2022-08-20T00:19:30.018Z,26.44
2022-08-20T00:21:58.049Z,26.58
2022-08-20T00:24:26.006Z,26.58
2022-08-20T00:26:53.438Z,26.51
2022-08-20T00:29:20.745Z,26.43
2022-08-20T00:31:50.556Z,26.39
2022-08-20T00:34:18.041Z,26.41
2022-08-20T00:36:45.530Z,26.41
2022-08-20T00:39:12.938Z,26.39
2022-08-20T00:41:40.511Z,26.50
2022-08-20T00:44:12.054Z,26.48
2022-08-20T00:46:40.166Z,26.30
2022-08-20T00:49:17.630Z,26.39
2022-08-20T00:51:48.196Z,26.41
2022-08-20T00:54:16.836Z,26.32
2022-08-20T00:56:44.887Z,26.36
2022-08-20T00:59:15.053Z,26.38
2022-08-20T01:01:55.310Z,26.42
2022-08-20T01:04:31.438Z,26.50
2022-08-20T01:06:59.025Z,26.38
2022-08-20T01:09:50.312Z,26.38
2022-08-20T01:12:14.694Z,26.24
2022-08-20T01:14:45.347Z,26.09
2022-08-20T01:17:17.899Z,26.12
2022-08-20T01:19:48.371Z,26.14
2022-08-20T01:22:35.954Z,26.11
2022-08-20T01:25:11.081Z,26.12
2022-08-20T01:27:42.659Z,26.14
2022-08-20T01:30:10.476Z,26.16
2022-08-20T01:32:37.650Z,25.84
2022-08-20T01:35:05.661Z,25.76
2022-08-20T01:37:33.014Z,25.90
2022-08-20T01:40:00.359Z,25.88
2022-08-20T01:42:32.029Z,25.82
2022-08-20T01:44:59.619Z,25.68
2022-08-20T01:47:31.428Z,25.52
2022-08-20T01:50:09.344Z,25.72
2022-08-20T01:52:43.464Z,25.65
2022-08-20T01:55:12.238Z,25.62
2022-08-20T01:57:39.988Z,25.75
2022-08-20T02:00:09.465Z,25.68
2022-08-20T02:02:47.907Z,25.63
2022-08-20T02:05:15.468Z,25.84
2022-08-20T02:07:42.779Z,25.91
2022-08-20T02:10:10.920Z,25.79
2022-08-20T02:12:39.937Z,25.87
2022-08-20T02:15:09.384Z,25.92
2022-08-20T02:17:41.791Z,25.80
2022-08-20T02:20:14.208Z,25.72
2022-08-20T02:22:49.903Z,25.98
2022-08-20T02:25:18.049Z,25.95
2022-08-20T02:27:46.059Z,25.94
2022-08-20T02:30:19.992Z,25.82
2022-08-20T02:32:59.260Z,25.92
2022-08-20T02:35:26.625Z,25.83
2022-08-20T02:37:54.115Z,25.67
2022-08-20T02:40:30.415Z,25.60
2022-08-20T02:42:58.941Z,25.93
2022-08-20T02:45:26.612Z,25.77
2022-08-20T02:47:54.353Z,25.74
2022-08-20T02:50:21.719Z,25.75
2022-08-20T02:52:51.890Z,25.78
2022-08-20T02:55:27.718Z,25.74
2022-08-20T02:57:58.483Z,25.77
2022-08-20T03:00:26.261Z,25.82
2022-08-20T03:02:53.458Z,25.82
2022-08-20T03:05:21.862Z,25.76
2022-08-20T03:07:51.490Z,25.72
2022-08-20T03:10:18.664Z,25.05
2022-08-20T03:12:46.138Z,24.29
2022-08-20T03:15:17.464Z,24.39
2022-08-20T03:17:45.284Z,25.05
2022-08-20T03:20:12.992Z,25.21
2022-08-20T03:22:40.176Z,25.39
2022-08-20T03:25:07.563Z,25.40
2022-08-20T03:27:36.524Z,25.49
2022-08-20T03:30:05.226Z,25.58
2022-08-20T03:32:32.482Z,25.62
2022-08-20T03:34:59.932Z,25.73
2022-08-20T03:37:35.182Z,25.71
2022-08-20T03:40:05.491Z,25.37
2022-08-20T03:42:33.424Z,25.47
2022-08-20T03:45:00.892Z,25.38
2022-08-20T03:47:32.295Z,25.34
2022-08-20T03:50:05.198Z,25.31
2022-08-20T03:52:32.667Z,25.44
2022-08-20T03:54:59.823Z,25.36
2022-08-20T03:57:27.598Z,25.36
2022-08-20T03:59:58.540Z,25.31
2022-08-20T04:02:25.805Z,25.42
2022-08-20T04:04:55.005Z,25.39
2022-08-20T04:07:28.680Z,25.45
2022-08-20T04:09:56.431Z,25.34
2022-08-20T04:12:24.206Z,25.37
2022-08-20T04:14:51.638Z,25.35
2022-08-20T04:17:22.578Z,25.40
2022-08-20T04:19:49.884Z,25.29
2022-08-20T04:22:17.058Z,25.41
2022-08-20T04:24:44.548Z,25.27
2022-08-20T04:27:12.189Z,25.31
2022-08-20T04:29:43.001Z,25.11
2022-08-20T04:32:10.494Z,25.16
2022-08-20T04:34:37.721Z,24.55
2022-08-20T04:37:05.152Z,24.87
2022-08-20T04:39:32.808Z,25.21
2022-08-20T04:42:00.004Z,25.09
2022-08-20T04:44:27.548Z,25.18
2022-08-20T04:46:55.079Z,25.08
2022-08-20T04:49:26.583Z,25.15
2022-08-20T04:51:54.901Z,25.40
2022-08-20T04:54:22.665Z,25.54
2022-08-20T04:56:49.892Z,25.47
2022-08-20T04:59:17.208Z,25.02
2022-08-20T05:01:45.625Z,25.39
2022-08-20T05:04:12.861Z,25.57
2022-08-20T05:06:41.250Z,25.47
2022-08-20T05:09:08.699Z,25.46
2022-08-20T05:11:37.007Z,25.61
2022-08-20T05:14:08.608Z,25.57
2022-08-20T05:16:40.654Z,25.69
2022-08-20T05:19:10.017Z,25.65
2022-08-20T05:21:37.762Z,25.71
2022-08-20T05:24:05.627Z,25.85
2022-08-20T05:26:33.497Z,25.76
2022-08-20T05:29:00.965Z,25.83
2022-08-20T05:31:31.863Z,25.84
2022-08-20T05:34:01.086Z,25.91
2022-08-20T05:36:28.551Z,25.92
2022-08-20T05:38:58.766Z,26.04
2022-08-20T05:41:28.726Z,26.12
2022-08-20T05:43:57.749Z,26.09
2022-08-20T05:46:25.364Z,26.00
2022-08-20T05:48:52.590Z,26.17
2022-08-20T05:51:20.068Z,26.16
2022-08-20T05:53:47.267Z,26.12
2022-08-20T05:56:14.418Z,26.24
2022-08-20T05:58:42.206Z,26.27
2022-08-20T06:01:10.793Z,26.08
2022-08-20T06:03:56.731Z,26.28
2022-08-20T06:06:39.149Z,26.17
2022-08-20T06:09:11.345Z,26.35
2022-08-20T06:11:38.516Z,26.32
2022-08-20T06:14:05.820Z,25.81
2022-08-20T06:16:33.321Z,25.64
2022-08-20T06:19:03.275Z,26.09
2022-08-20T06:21:30.742Z,25.55
2022-08-20T06:24:00.656Z,25.76
2022-08-20T06:26:30.991Z,25.74
2022-08-20T06:29:01.537Z,25.86
2022-08-20T06:31:28.812Z,26.07
2022-08-20T06:33:56.015Z,26.11
2022-08-20T06:36:23.462Z,26.40
2022-08-20T06:38:50.690Z,26.15
2022-08-20T06:41:18.130Z,26.15
2022-08-20T06:43:46.569Z,26.07
2022-08-20T06:46:14.673Z,26.26
2022-08-20T06:48:41.877Z,26.25
2022-08-20T06:51:10.276Z,26.56
2022-08-20T06:53:41.009Z,26.28
2022-08-20T06:56:08.647Z,26.21
2022-08-20T06:58:38.650Z,26.33
2022-08-20T07:01:11.328Z,26.62
2022-08-20T07:03:55.821Z,26.71
2022-08-20T07:06:25.527Z,26.77
2022-08-20T07:08:56.512Z,26.75
2022-08-20T07:11:27.825Z,26.68
2022-08-20T07:13:56.768Z,26.58
2022-08-20T07:16:24.493Z,26.51
2022-08-20T07:18:51.683Z,26.63
2022-08-20T07:21:19.128Z,26.75
2022-08-20T07:23:48.942Z,26.79
2022-08-20T07:26:16.244Z,26.70
2022-08-20T07:28:43.761Z,26.65
2022-08-20T07:31:31.341Z,26.76
2022-08-20T07:33:59.725Z,26.80
2022-08-20T07:36:27.113Z,26.63
2022-08-20T07:38:54.454Z,26.49
2022-08-20T07:41:22.000Z,26.57
2022-08-20T07:43:49.249Z,26.41
2022-08-20T07:46:20.588Z,26.32
2022-08-20T07:48:50.099Z,26.28
2022-08-20T07:51:19.195Z,26.28
2022-08-20T07:53:47.008Z,24.80
2022-08-20T07:56:15.624Z,25.16
2022-08-20T07:58:49.950Z,24.62
2022-08-20T08:01:18.627Z,24.88
2022-08-20T08:03:49.881Z,25.45
2022-08-20T08:06:29.665Z,25.49
2022-08-20T08:09:00.000Z,25.76
2022-08-20T08:11:27.221Z,25.66
2022-08-20T08:13:54.679Z,25.74
2022-08-20T08:16:22.191Z,25.80
2022-08-20T08:18:50.364Z,25.50
2022-08-20T08:21:18.386Z,25.48
2022-08-20T08:23:45.822Z,25.62
2022-08-20T08:26:16.142Z,25.73
2022-08-20T08:28:46.768Z,25.62
2022-08-20T08:31:14.736Z,25.50
2022-08-20T08:33:41.923Z,25.55
2022-08-20T08:36:11.150Z,25.61
2022-08-20T08:38:38.948Z,25.63
2022-08-20T08:41:15.154Z,25.68
2022-08-20T08:43:42.949Z,25.65
2022-08-20T08:46:11.039Z,25.62
2022-08-20T08:48:43.543Z,25.57
2022-08-20T08:51:12.589Z,25.44
2022-08-20T08:54:04.612Z,25.41
2022-08-20T08:56:34.348Z,25.58
2022-08-20T08:59:06.133Z,25.50
2022-08-20T09:01:54.152Z,25.25
2022-08-20T09:04:24.402Z,25.24
2022-08-20T09:06:55.067Z,25.21
2022-08-20T09:09:23.465Z,25.34
2022-08-20T09:11:53.180Z,25.51
2022-08-20T09:14:21.184Z,25.45
2022-08-20T09:16:52.929Z,25.26
2022-08-20T09:19:21.377Z,25.40
2022-08-20T09:21:48.723Z,25.50
2022-08-20T09:24:15.916Z,25.66
2022-08-20T09:26:43.599Z,25.38
2022-08-20T09:29:10.920Z,25.44
2022-08-20T09:31:38.352Z,25.35
2022-08-20T09:34:06.410Z,25.37
2022-08-20T09:36:33.821Z,25.27
2022-08-20T09:39:03.028Z,25.20
2022-08-20T09:41:33.721Z,25.37
2022-08-20T09:44:02.275Z,25.24
2022-08-20T09:46:29.518Z,25.24
2022-08-20T09:48:57.073Z,25.15
2022-08-20T09:51:24.302Z,25.13
2022-08-20T09:53:51.484Z,25.04
2022-08-20T09:56:18.988Z,25.07
2022-08-20T09:58:48.200Z,25.19
2022-08-20T10:01:16.162Z,25.09
2022-08-20T10:03:44.295Z,25.08
2022-08-20T10:06:14.800Z,25.00
2022-08-20T10:08:42.471Z,24.93
2022-08-20T10:11:10.291Z,25.10
2022-08-20T10:13:37.501Z,25.12
2022-08-20T10:16:04.834Z,25.05
2022-08-20T10:18:32.359Z,25.23
2022-08-20T10:20:59.922Z,25.41
2022-08-20T10:23:27.149Z,25.43
2022-08-20T10:25:54.663Z,25.61
2022-08-20T10:28:21.850Z,25.36
2022-08-20T10:30:49.045Z,25.35
2022-08-20T10:33:16.506Z,24.94
2022-08-20T10:35:43.836Z,24.86
2022-08-20T10:38:11.094Z,25.33
2022-08-20T10:40:38.817Z,25.32
2022-08-20T10:43:06.157Z,25.76
2022-08-20T10:45:33.469Z,25.97
2022-08-20T10:48:01.431Z,26.01
2022-08-20T10:50:30.390Z,26.26
2022-08-20T10:52:59.011Z,26.18
2022-08-20T10:55:26.592Z,26.38
2022-08-20T10:57:53.779Z,26.42
2022-08-20T11:00:20.966Z,26.53
2022-08-20T11:02:48.418Z,26.66
2022-08-20T11:05:15.622Z,26.83
2022-08-20T11:07:50.757Z,26.89
2022-08-20T11:10:29.000Z,26.98
2022-08-20T11:12:56.444Z,27.02
2022-08-20T11:15:23.893Z,27.04
2022-08-20T11:17:51.569Z,27.13
2022-08-20T11:20:23.769Z,27.27
2022-08-20T11:22:51.215Z,27.19
2022-08-20T11:25:18.569Z,27.19
2022-08-20T11:27:48.595Z,27.38
2022-08-20T11:30:17.963Z,27.73
2022-08-20T11:32:45.454Z,27.67
2022-08-20T11:35:40.925Z,27.68
2022-08-20T11:38:09.170Z,27.84
2022-08-20T11:40:46.985Z,27.82
2022-08-20T11:43:17.432Z,27.48
2022-08-20T11:45:48.286Z,27.80
2022-08-20T11:48:15.821Z,27.87
2022-08-20T11:50:44.318Z,27.81
2022-08-20T11:53:12.774Z,27.63
2022-08-20T11:55:46.129Z,27.77
2022-08-20T11:58:15.257Z,27.95
2022-08-20T12:00:42.899Z,27.71
2022-08-20T12:03:11.830Z,27.94
2022-08-20T12:05:40.414Z,27.95
2022-08-20T12:08:08.574Z,28.08
2022-08-20T12:10:36.724Z,27.94
2022-08-20T12:13:07.966Z,28.04
2022-08-20T12:15:36.266Z,27.81
2022-08-20T12:18:10.066Z,27.85
2022-08-20T12:20:37.993Z,28.05
2022-08-20T12:23:05.475Z,27.95
2022-08-20T12:25:33.321Z,27.79
2022-08-20T12:28:01.099Z,27.88
2022-08-20T12:30:28.449Z,28.04
2022-08-20T12:32:55.849Z,28.13
2022-08-20T12:35:23.610Z,28.19
2022-08-20T12:37:50.978Z,27.84
2022-08-20T12:40:24.563Z,27.69
2022-08-20T12:43:06.386Z,27.93
2022-08-20T12:45:33.648Z,27.79
2022-08-20T12:48:20.953Z,27.67
2022-08-20T12:50:50.255Z,27.79
2022-08-20T12:53:18.097Z,27.94
2022-08-20T12:55:49.510Z,28.09
2022-08-20T12:58:16.743Z,28.11
2022-08-20T13:00:45.985Z,28.03
2022-08-20T13:03:18.255Z,28.18
2022-08-20T13:05:45.754Z,28.03
2022-08-20T13:08:13.061Z,28.26
2022-08-20T13:10:45.609Z,28.27
2022-08-20T13:13:13.965Z,28.25
2022-08-20T13:15:41.467Z,28.30
2022-08-20T13:18:09.682Z,28.27
2022-08-20T13:20:38.168Z,28.29
2022-08-20T13:23:05.747Z,28.24
2022-08-20T13:25:33.428Z,28.29
2022-08-20T13:28:03.925Z,28.27
2022-08-20T13:30:31.845Z,28.26
2022-08-20T13:32:59.222Z,28.33
2022-08-20T13:35:26.668Z,28.35
2022-08-20T13:37:53.874Z,28.21
2022-08-20T13:40:21.150Z,27.92
2022-08-20T13:42:48.621Z,28.00
2022-08-20T13:45:15.789Z,28.14
2022-08-20T13:47:43.066Z,27.56
2022-08-20T13:50:15.343Z,28.05
2022-08-20T13:52:42.999Z,27.96
2022-08-20T13:55:11.359Z,27.88
2022-08-20T13:57:38.619Z,27.78
2022-08-20T14:00:08.230Z,27.59
2022-08-20T14:02:38.005Z,27.63
2022-08-20T14:05:05.397Z,27.73
2022-08-20T14:07:33.070Z,27.89
2022-08-20T14:10:01.627Z,27.84
2022-08-20T14:12:30.855Z,27.70
2022-08-20T14:14:58.158Z,27.64
2022-08-20T14:17:26.679Z,27.88
2022-08-20T14:20:01.133Z,27.79
2022-08-20T14:22:30.490Z,27.61
2022-08-20T14:24:59.589Z,27.37
2022-08-20T14:27:31.156Z,27.59
2022-08-20T14:29:58.858Z,27.64
2022-08-20T14:32:26.358Z,27.61
2022-08-20T14:34:54.251Z,27.61
2022-08-20T14:37:22.911Z,27.65
2022-08-20T14:39:51.170Z,27.69
2022-08-20T14:42:18.556Z,27.57
2022-08-20T14:44:46.025Z,27.72
2022-08-20T14:47:33.661Z,27.72
2022-08-20T14:50:04.601Z,27.75
2022-08-20T14:52:33.028Z,27.81
2022-08-20T14:55:00.533Z,27.92
2022-08-20T14:57:27.821Z,27.89
2022-08-20T14:59:55.110Z,27.96
2022-08-20T15:02:22.779Z,27.90
2022-08-20T15:04:54.200Z,27.97
2022-08-20T15:07:27.382Z,27.79
2022-08-20T15:09:54.928Z,27.88
2022-08-20T15:12:22.772Z,27.80
2022-08-20T15:14:50.113Z,27.93
2022-08-20T15:17:25.884Z,27.99
2022-08-20T15:19:53.868Z,27.94
2022-08-20T15:22:21.082Z,27.71
2022-08-20T15:24:48.313Z,27.81
2022-08-20T15:27:23.084Z,27.81
2022-08-20T15:29:51.204Z,27.85
2022-08-20T15:32:18.845Z,27.95
2022-08-20T15:34:46.711Z,27.83
2022-08-20T15:37:16.469Z,27.91
2022-08-20T15:39:44.503Z,27.95
2022-08-20T15:42:12.944Z,27.92
2022-08-20T15:44:40.607Z,27.91
2022-08-20T15:47:28.790Z,27.95
2022-08-20T15:50:00.000Z,27.89
2022-08-20T15:52:29.622Z,27.93
2022-08-20T15:54:56.808Z,27.91
2022-08-20T15:57:31.858Z,27.87
2022-08-20T16:00:03.595Z,27.81
2022-08-20T16:02:53.527Z,27.94
2022-08-20T16:05:40.088Z,27.86
2022-08-20T16:08:09.789Z,27.86
2022-08-20T16:10:40.197Z,27.90
2022-08-20T16:13:10.310Z,28.02
2022-08-20T16:15:39.076Z,27.88
2022-08-20T16:18:08.036Z,27.85
2022-08-20T16:20:41.421Z,27.89
2022-08-20T16:23:08.969Z,28.03
2022-08-20T16:25:42.891Z,27.96
2022-08-20T16:28:32.197Z,27.96
2022-08-20T16:31:05.949Z,27.92
2022-08-20T16:33:37.359Z,27.90
2022-08-20T16:36:09.528Z,27.81
2022-08-20T16:38:48.660Z,27.86
2022-08-20T16:41:36.063Z,27.81
2022-08-20T16:44:15.415Z,27.80
2022-08-20T16:46:46.583Z,27.88
2022-08-20T16:49:14.175Z,27.69
2022-08-20T16:51:42.541Z,27.77
2022-08-20T16:54:10.338Z,27.68
2022-08-20T16:56:40.322Z,27.73
2022-08-20T16:59:09.713Z,27.58
2022-08-20T17:01:37.321Z,27.40
2022-08-20T17:04:05.526Z,27.44
2022-08-20T17:06:35.579Z,27.57
2022-08-20T17:09:05.415Z,27.60
2022-08-20T17:11:36.189Z,27.51
2022-08-20T17:14:09.660Z,27.50
2022-08-20T17:16:38.718Z,27.40
2022-08-20T17:19:13.776Z,27.32
2022-08-20T17:21:41.791Z,27.21
2022-08-20T17:24:16.800Z,27.33
2022-08-20T17:26:45.813Z,27.24
2022-08-20T17:29:16.133Z,27.32
2022-08-20T17:31:45.001Z,27.31
2022-08-20T17:34:20.167Z,27.15
2022-08-20T17:36:48.147Z,27.25
2022-08-20T17:39:17.391Z,27.24
2022-08-20T17:41:47.414Z,27.28
2022-08-20T17:44:20.974Z,27.18
2022-08-20T17:46:48.802Z,27.17
2022-08-20T17:49:18.452Z,27.17
2022-08-20T17:51:49.773Z,27.03
2022-08-20T17:54:27.125Z,26.85
2022-08-20T17:56:55.827Z,26.98
2022-08-20T17:59:33.538Z,26.78
2022-08-20T18:02:15.013Z,26.86
2022-08-20T18:04:42.663Z,26.84
2022-08-20T18:07:31.769Z,26.80
2022-08-20T18:10:04.348Z,26.71
2022-08-20T18:12:35.264Z,26.78
2022-08-20T18:15:07.568Z,26.54
2022-08-20T18:17:50.054Z,26.66
2022-08-20T18:20:23.043Z,26.47
2022-08-20T18:22:53.750Z,26.50
2022-08-20T18:25:59.493Z,26.33
2022-08-20T18:28:35.179Z,26.46
2022-08-20T18:31:09.002Z,26.42
2022-08-20T18:33:37.826Z,26.34
2022-08-20T18:36:23.068Z,26.29
2022-08-20T18:39:05.319Z,26.21
2022-08-20T18:41:34.085Z,26.21
2022-08-20T18:44:02.600Z,26.31
2022-08-20T18:46:29.814Z,26.20
2022-08-20T18:49:01.266Z,26.30
2022-08-20T18:51:40.090Z,26.23
2022-08-20T18:54:07.811Z,26.18
2022-08-20T18:56:36.988Z,26.14
2022-08-20T18:59:07.348Z,25.98
2022-08-20T19:01:35.468Z,26.04
2022-08-20T19:04:03.265Z,26.03
2022-08-20T19:06:37.214Z,26.06
2022-08-20T19:09:10.799Z,26.02
2022-08-20T19:11:47.194Z,25.91
2022-08-20T19:14:23.464Z,25.84
2022-08-20T19:16:57.072Z,25.92
2022-08-20T19:19:26.690Z,25.86
2022-08-20T19:21:55.854Z,25.79
2022-08-20T19:24:24.661Z,25.78
2022-08-20T19:26:54.375Z,25.75
2022-08-20T19:29:24.646Z,25.86
2022-08-20T19:31:56.959Z,25.81
2022-08-20T19:34:25.650Z,25.73
2022-08-20T19:37:34.950Z,25.87
2022-08-20T19:40:01.530Z,25.80
2022-08-20T19:42:31.271Z,25.80
2022-08-20T19:45:07.993Z,25.77
2022-08-20T19:47:37.985Z,25.70
2022-08-20T19:50:08.264Z,25.62
2022-08-20T19:52:43.000Z,25.70
2022-08-20T19:55:16.226Z,25.74
2022-08-20T19:57:50.595Z,25.57
2022-08-20T20:00:17.836Z,25.49
2022-08-20T20:02:45.320Z,25.47
2022-08-20T20:05:13.794Z,25.32
2022-08-20T20:07:45.702Z,25.48
2022-08-20T20:10:24.638Z,25.37
2022-08-20T20:12:52.232Z,25.40
2022-08-20T20:15:19.750Z,25.42
2022-08-20T20:17:46.961Z,25.50
2022-08-20T20:20:27.007Z,25.36
2022-08-20T20:22:56.176Z,25.38
2022-08-20T20:25:34.236Z,25.47
2022-08-20T20:28:09.653Z,25.51
2022-08-20T20:30:37.454Z,25.56
2022-08-20T20:33:18.336Z,25.63
2022-08-20T20:35:45.846Z,25.55
2022-08-20T20:38:26.947Z,25.23
2022-08-20T20:40:55.576Z,25.42
2022-08-20T20:43:43.262Z,25.42
2022-08-20T20:46:18.107Z,25.39
2022-08-20T20:48:49.737Z,25.45
2022-08-20T20:51:25.050Z,25.59
2022-08-20T20:53:55.011Z,25.38
2022-08-20T20:56:26.786Z,25.48
2022-08-20T20:58:56.085Z,25.18
2022-08-20T21:01:38.652Z,25.22
2022-08-20T21:04:11.256Z,25.19
2022-08-20T21:06:38.494Z,24.95
2022-08-20T21:09:05.697Z,25.17
2022-08-20T21:11:33.145Z,24.72
2022-08-20T21:14:00.312Z,24.74
2022-08-20T21:16:27.506Z,24.69
2022-08-20T21:18:54.900Z,24.75
2022-08-20T21:21:22.069Z,24.64
2022-08-20T21:23:49.304Z,24.35
2022-08-20T21:26:17.166Z,24.65
2022-08-20T21:28:44.406Z,24.47
2022-08-20T21:31:11.581Z,24.40
2022-08-20T21:33:39.020Z,24.72
2022-08-20T21:36:06.262Z,24.66
2022-08-20T21:38:33.450Z,24.58
2022-08-20T21:41:00.983Z,24.73
2022-08-20T21:43:32.743Z,24.62
2022-08-20T21:46:01.519Z,24.55
2022-08-20T21:48:30.454Z,24.53
2022-08-20T21:50:57.615Z,24.47
2022-08-20T21:53:25.035Z,24.56
2022-08-20T21:55:52.216Z,24.55
2022-08-20T21:58:19.410Z,24.26
2022-08-20T22:00:48.756Z,24.38
2022-08-20T22:03:16.697Z,24.49
2022-08-20T22:05:47.363Z,24.53
2022-08-20T22:08:14.568Z,24.63
2022-08-20T22:10:41.998Z,24.55
2022-08-20T22:13:09.171Z,24.68
2022-08-20T22:15:38.483Z,24.72
2022-08-20T22:18:06.386Z,24.62
2022-08-20T22:20:33.553Z,24.64
2022-08-20T22:23:01.927Z,24.62
2022-08-20T22:25:29.414Z,24.63
2022-08-20T22:27:56.583Z,24.59
2022-08-20T22:30:24.399Z,24.69
2022-08-20T22:32:53.032Z,24.45
2022-08-20T22:35:20.289Z,24.34
2022-08-20T22:37:47.450Z,24.54
2022-08-20T22:40:14.947Z,24.35
2022-08-20T22:42:42.167Z,24.30
2022-08-20T22:45:14.459Z,24.23
2022-08-20T22:47:42.604Z,24.13
2022-08-20T22:50:10.895Z,24.38
2022-08-20T22:52:38.904Z,24.07
2022-08-20T22:55:06.464Z,24.20
2022-08-20T22:57:34.341Z,24.25
2022-08-20T23:00:01.653Z,24.13
2022-08-20T23:02:29.232Z,24.34
2022-08-20T23:04:56.385Z,24.19
2022-08-20T23:07:23.538Z,24.31
2022-08-20T23:09:50.956Z,24.24
2022-08-20T23:12:18.176Z,24.24
2022-08-20T23:14:45.659Z,24.30
2022-08-20T23:17:14.617Z,23.81
2022-08-20T23:19:41.965Z,24.02
2022-08-20T23:22:09.176Z,24.04
2022-08-20T23:24:37.992Z,23.84
2022-08-20T23:27:05.603Z,24.04
2022-08-20T23:29:32.830Z,23.92
2022-08-20T23:32:00.314Z,24.07
2022-08-20T23:34:27.586Z,24.01
2022-08-20T23:36:54.813Z,23.87
2022-08-20T23:39:23.901Z,24.05
2022-08-20T23:41:51.053Z,24.01
2022-08-20T23:44:26.553Z,23.80
2022-08-20T23:46:55.399Z,23.66
2022-08-20T23:49:22.588Z,24.01
2022-08-20T23:51:49.766Z,24.07
2022-08-20T23:54:17.263Z,23.94
2022-08-20T23:56:44.430Z,24.00
2022-08-20T23:59:11.606Z,24.05
